createdAt,value
2019-02-27T00:00:23.702Z,1022.57
2019-02-27T00:01:23.659Z,1022.61
2019-02-27T00:02:23.634Z,1022.61
2019-02-27T00:03:23.597Z,1022.62
2019-02-27T00:04:23.563Z,1022.63
2019-02-27T00:05:23.524Z,1022.66
2019-02-27T00:06:23.493Z,1022.62
2019-02-27T00:07:23.458Z,1022.59
2019-02-27T00:08:26.787Z,1022.58
2019-02-27T00:09:23.384Z,1022.55
2019-02-27T00:10:23.350Z,1022.57
2019-02-27T00:11:23.315Z,1022.56
2019-02-27T00:12:23.280Z,1022.52
2019-02-27T00:13:24.870Z,1022.50
2019-02-27T00:14:23.210Z,1022.53
2019-02-27T00:15:23.173Z,1022.48
2019-02-27T00:16:23.134Z,1022.47
2019-02-27T00:17:23.104Z,1022.46
2019-02-27T00:18:23.971Z,1022.45
2019-02-27T00:19:23.030Z,1022.42
2019-02-27T00:20:22.996Z,1022.43
2019-02-27T00:21:22.954Z,1022.39
2019-02-27T00:22:22.924Z,1022.37
2019-02-27T00:23:24.185Z,1022.40
2019-02-27T00:24:22.853Z,1022.34
2019-02-27T00:25:22.811Z,1022.32
2019-02-27T00:26:22.784Z,1022.32
2019-02-27T00:27:22.744Z,1022.29
2019-02-27T00:28:23.348Z,1022.30
2019-02-27T00:29:22.673Z,1022.25
2019-02-27T00:30:22.634Z,1022.25
2019-02-27T00:31:22.600Z,1022.24
2019-02-27T00:32:22.560Z,1022.24
2019-02-27T00:33:25.254Z,1022.24
2019-02-27T00:34:22.496Z,1022.23
2019-02-27T00:35:22.466Z,1022.23
2019-02-27T00:36:22.416Z,1022.22
2019-02-27T00:37:22.381Z,1022.24
2019-02-27T00:38:22.775Z,1022.20
2019-02-27T00:39:22.310Z,1022.20
2019-02-27T00:40:22.289Z,1022.18
2019-02-27T00:41:22.246Z,1022.21
2019-02-27T00:42:23.078Z,1022.17
2019-02-27T00:43:22.165Z,1022.19
2019-02-27T00:44:22.135Z,1022.13
2019-02-27T00:45:22.096Z,1022.14
2019-02-27T00:46:22.062Z,1022.15
2019-02-27T00:47:22.023Z,1022.13
2019-02-27T00:48:25.980Z,1022.13
2019-02-27T00:49:21.966Z,1022.13
2019-02-27T00:50:21.918Z,1022.14
2019-02-27T00:51:21.881Z,1022.13
2019-02-27T00:52:21.843Z,1022.13
2019-02-27T00:53:22.034Z,1022.12
2019-02-27T00:54:21.773Z,1022.13
2019-02-27T00:55:21.737Z,1022.09
2019-02-27T00:56:21.710Z,1022.10
2019-02-27T00:57:21.667Z,1022.06
2019-02-27T00:58:21.636Z,1022.07
2019-02-27T00:59:21.598Z,1022.01
2019-02-27T01:00:21.558Z,1022.06
2019-02-27T01:01:21.526Z,1022.08
2019-02-27T01:02:21.496Z,1022.03
2019-02-27T01:03:23.908Z,1022.05
2019-02-27T01:04:21.419Z,1022.02
2019-02-27T01:05:21.387Z,1022.00
2019-02-27T01:06:21.342Z,1021.99
2019-02-27T01:07:21.468Z,1022.00
2019-02-27T01:08:21.282Z,1021.99
2019-02-27T01:09:21.244Z,1021.98
2019-02-27T01:10:21.197Z,1021.99
2019-02-27T01:11:21.172Z,1021.98
2019-02-27T01:12:22.897Z,1021.99
2019-02-27T01:13:21.102Z,1021.98
2019-02-27T01:14:21.063Z,1021.93
2019-02-27T01:15:21.027Z,1022.02
2019-02-27T01:16:20.987Z,1021.99
2019-02-27T01:17:23.742Z,1021.98
2019-02-27T01:18:20.919Z,1021.93
2019-02-27T01:19:20.889Z,1021.94
2019-02-27T01:20:20.844Z,1021.95
2019-02-27T01:21:20.812Z,1021.93
2019-02-27T01:22:20.776Z,1021.95
2019-02-27T01:23:20.734Z,1021.97
2019-02-27T01:24:20.700Z,1021.93
2019-02-27T01:25:22.912Z,1021.97
2019-02-27T01:26:20.625Z,1021.90
2019-02-27T01:27:20.598Z,1021.93
2019-02-27T01:28:20.558Z,1021.91
2019-02-27T01:29:20.538Z,1021.87
2019-02-27T01:30:23.892Z,1021.90
2019-02-27T01:31:21.963Z,1021.87
2019-02-27T01:32:20.413Z,1021.89
2019-02-27T01:33:20.375Z,1021.86
2019-02-27T01:34:20.345Z,1021.83
2019-02-27T01:35:20.300Z,1021.82
2019-02-27T01:36:24.228Z,1021.81
2019-02-27T01:37:20.234Z,1021.82
2019-02-27T01:38:20.198Z,1021.81
2019-02-27T01:39:20.164Z,1021.80
2019-02-27T01:40:20.133Z,1021.77
2019-02-27T01:41:24.424Z,1021.75
2019-02-27T01:42:20.055Z,1021.74
2019-02-27T01:43:20.019Z,1021.78
2019-02-27T01:44:19.978Z,1021.78
2019-02-27T01:45:21.047Z,1021.78
2019-02-27T01:46:19.915Z,1021.75
2019-02-27T01:47:19.874Z,1021.81
2019-02-27T01:48:19.831Z,1021.81
2019-02-27T01:49:19.809Z,1021.75
2019-02-27T01:50:19.932Z,1021.73
2019-02-27T01:51:19.737Z,1021.73
2019-02-27T01:52:19.686Z,1021.68
2019-02-27T01:53:19.659Z,1021.69
2019-02-27T01:54:19.619Z,1021.61
2019-02-27T01:55:21.725Z,1021.58
2019-02-27T01:56:19.549Z,1021.58
2019-02-27T01:57:19.509Z,1021.56
2019-02-27T01:58:19.474Z,1021.52
2019-02-27T01:59:19.442Z,1021.51
2019-02-27T02:00:23.023Z,1021.47
2019-02-27T02:01:19.362Z,1021.46
2019-02-27T02:02:19.326Z,1021.43
2019-02-27T02:03:19.300Z,1021.43
2019-02-27T02:04:20.295Z,1021.44
2019-02-27T02:05:19.225Z,1021.44
2019-02-27T02:06:19.240Z,1021.41
2019-02-27T02:07:19.155Z,1021.37
2019-02-27T02:08:19.105Z,1021.40
2019-02-27T02:09:21.248Z,1021.35
2019-02-27T02:10:19.036Z,1021.33
2019-02-27T02:11:19.001Z,1021.34
2019-02-27T02:12:18.971Z,1021.29
2019-02-27T02:13:18.936Z,1021.25
2019-02-27T02:14:21.066Z,1021.25
2019-02-27T02:15:18.866Z,1021.23
2019-02-27T02:16:18.828Z,1021.26
2019-02-27T02:17:18.788Z,1021.22
2019-02-27T02:18:18.773Z,1021.21
2019-02-27T02:19:19.010Z,1021.21
2019-02-27T02:20:18.683Z,1021.21
2019-02-27T02:21:18.641Z,1021.16
2019-02-27T02:22:18.613Z,1021.11
2019-02-27T02:23:18.575Z,1021.14
2019-02-27T02:24:20.899Z,1021.09
2019-02-27T02:25:18.506Z,1021.09
2019-02-27T02:26:18.465Z,1021.05
2019-02-27T02:27:18.432Z,1021.03
2019-02-27T02:28:18.392Z,1021.04
2019-02-27T02:29:20.385Z,1021.01
2019-02-27T02:30:18.318Z,1021.01
2019-02-27T02:31:18.285Z,1021.01
2019-02-27T02:32:18.302Z,1021.00
2019-02-27T02:33:18.209Z,1021.03
2019-02-27T02:34:18.178Z,1021.01
2019-02-27T02:35:18.139Z,1020.99
2019-02-27T02:36:18.101Z,1020.96
2019-02-27T02:37:18.061Z,1020.98
2019-02-27T02:38:18.022Z,1020.92
2019-02-27T02:39:19.258Z,1020.90
2019-02-27T02:40:17.959Z,1020.91
2019-02-27T02:41:17.920Z,1020.91
2019-02-27T02:42:17.888Z,1020.84
2019-02-27T02:43:17.847Z,1020.86
2019-02-27T02:44:20.667Z,1020.84
2019-02-27T02:45:17.780Z,1020.84
2019-02-27T02:46:17.730Z,1020.86
2019-02-27T02:47:21.034Z,1020.84
2019-02-27T02:48:17.659Z,1020.85
2019-02-27T02:49:17.635Z,1020.84
2019-02-27T02:50:18.455Z,1020.79
2019-02-27T02:51:17.555Z,1020.80
2019-02-27T02:52:17.520Z,1020.84
2019-02-27T02:53:17.483Z,1020.80
2019-02-27T02:54:17.454Z,1020.82
2019-02-27T02:55:17.397Z,1020.84
2019-02-27T02:56:17.375Z,1020.81
2019-02-27T02:57:17.335Z,1020.83
2019-02-27T02:58:17.308Z,1020.80
2019-02-27T02:59:17.263Z,1020.78
2019-02-27T03:00:17.232Z,1020.77
2019-02-27T03:01:17.185Z,1020.75
2019-02-27T03:02:17.155Z,1020.78
2019-02-27T03:03:17.116Z,1020.77
2019-02-27T03:04:17.078Z,1020.76
2019-02-27T03:05:17.044Z,1020.69
2019-02-27T03:06:17.009Z,1020.66
2019-02-27T03:07:16.971Z,1020.66
2019-02-27T03:08:20.095Z,1020.65
2019-02-27T03:09:16.899Z,1020.63
2019-02-27T03:10:16.860Z,1020.63
2019-02-27T03:11:19.065Z,1020.57
2019-02-27T03:12:16.793Z,1020.58
2019-02-27T03:13:16.749Z,1020.53
2019-02-27T03:14:17.590Z,1020.50
2019-02-27T03:15:16.682Z,1020.49
2019-02-27T03:16:16.647Z,1020.48
2019-02-27T03:17:18.292Z,1020.45
2019-02-27T03:18:16.565Z,1020.41
2019-02-27T03:19:16.533Z,1020.42
2019-02-27T03:20:17.643Z,1020.41
2019-02-27T03:21:16.466Z,1020.35
2019-02-27T03:22:16.426Z,1020.37
2019-02-27T03:23:16.490Z,1020.40
2019-02-27T03:24:16.345Z,1020.35
2019-02-27T03:25:16.312Z,1020.35
2019-02-27T03:26:17.647Z,1020.37
2019-02-27T03:27:16.244Z,1020.36
2019-02-27T03:28:16.195Z,1020.38
2019-02-27T03:29:17.351Z,1020.35
2019-02-27T03:30:16.130Z,1020.40
2019-02-27T03:31:18.587Z,1020.40
2019-02-27T03:32:16.053Z,1020.39
2019-02-27T03:33:22.842Z,1020.40
2019-02-27T03:34:15.985Z,1020.38
2019-02-27T03:35:15.943Z,1020.41
2019-02-27T03:36:15.905Z,1020.37
2019-02-27T03:37:15.875Z,1020.37
2019-02-27T03:38:15.826Z,1020.36
2019-02-27T03:39:15.797Z,1020.35
2019-02-27T03:40:15.766Z,1020.36
2019-02-27T03:41:15.726Z,1020.35
2019-02-27T03:42:15.682Z,1020.33
2019-02-27T03:43:15.651Z,1020.31
2019-02-27T03:44:20.234Z,1020.30
2019-02-27T03:45:15.568Z,1020.34
2019-02-27T03:46:15.545Z,1020.32
2019-02-27T03:47:16.737Z,1020.34
2019-02-27T03:48:15.473Z,1020.29
2019-02-27T03:49:15.426Z,1020.29
2019-02-27T03:50:15.753Z,1020.32
2019-02-27T03:51:15.351Z,1020.28
2019-02-27T03:52:15.318Z,1020.28
2019-02-27T03:53:15.274Z,1020.26
2019-02-27T03:54:20.905Z,1020.27
2019-02-27T03:55:15.205Z,1020.26
2019-02-27T03:56:15.167Z,1020.28
2019-02-27T03:57:18.951Z,1020.25
2019-02-27T03:58:15.096Z,1020.25
2019-02-27T03:59:15.047Z,1020.26
2019-02-27T04:00:18.324Z,1020.26
2019-02-27T04:01:14.991Z,1020.23
2019-02-27T04:02:14.947Z,1020.25
2019-02-27T04:03:18.262Z,1020.26
2019-02-27T04:04:14.883Z,1020.25
2019-02-27T04:05:14.837Z,1020.28
2019-02-27T04:06:19.637Z,1020.26
2019-02-27T04:07:14.773Z,1020.29
2019-02-27T04:08:14.738Z,1020.24
2019-02-27T04:09:18.812Z,1020.25
2019-02-27T04:10:14.659Z,1020.26
2019-02-27T04:11:14.618Z,1020.23
2019-02-27T04:12:16.580Z,1020.22
2019-02-27T04:13:14.537Z,1020.24
2019-02-27T04:14:14.515Z,1020.23
2019-02-27T04:15:17.725Z,1020.19
2019-02-27T04:16:14.507Z,1020.20
2019-02-27T04:17:14.396Z,1020.20
2019-02-27T04:18:14.349Z,1020.19
2019-02-27T04:19:14.318Z,1020.19
2019-02-27T04:20:15.514Z,1020.19
2019-02-27T04:21:14.254Z,1020.15
2019-02-27T04:22:14.208Z,1020.15
2019-02-27T04:23:14.174Z,1020.14
2019-02-27T04:24:14.140Z,1020.16
2019-02-27T04:25:14.091Z,1020.18
2019-02-27T04:26:14.062Z,1020.15
2019-02-27T04:27:20.201Z,1020.14
2019-02-27T04:28:13.981Z,1020.18
2019-02-27T04:29:13.948Z,1020.13
2019-02-27T04:30:15.023Z,1020.14
2019-02-27T04:31:13.883Z,1020.12
2019-02-27T04:32:13.842Z,1020.14
2019-02-27T04:33:13.805Z,1020.14
2019-02-27T04:34:13.765Z,1020.10
2019-02-27T04:35:13.727Z,1020.15
2019-02-27T04:36:13.684Z,1020.13
2019-02-27T04:37:13.650Z,1020.13
2019-02-27T04:38:13.614Z,1020.12
2019-02-27T04:39:13.579Z,1020.12
2019-02-27T04:40:13.542Z,1020.08
2019-02-27T04:41:17.803Z,1020.11
2019-02-27T04:42:13.460Z,1020.10
2019-02-27T04:43:13.429Z,1020.11
2019-02-27T04:44:13.394Z,1020.09
2019-02-27T04:45:13.355Z,1020.10
2019-02-27T04:46:13.315Z,1020.09
2019-02-27T04:47:13.284Z,1020.08
2019-02-27T04:48:13.249Z,1020.12
2019-02-27T04:49:13.214Z,1020.10
2019-02-27T04:50:13.165Z,1020.07
2019-02-27T04:51:16.862Z,1020.10
2019-02-27T04:52:13.098Z,1020.07
2019-02-27T04:53:13.061Z,1020.07
2019-02-27T04:54:13.018Z,1020.08
2019-02-27T04:55:15.494Z,1020.07
2019-02-27T04:56:12.944Z,1020.04
2019-02-27T04:57:12.914Z,1020.03
2019-02-27T04:58:12.864Z,1020.03
2019-02-27T04:59:12.846Z,1020.03
2019-02-27T05:00:12.799Z,1019.99
2019-02-27T05:01:12.763Z,1020.02
2019-02-27T05:02:14.544Z,1019.98
2019-02-27T05:03:12.686Z,1019.96
2019-02-27T05:04:12.646Z,1019.91
2019-02-27T05:05:12.609Z,1019.92
2019-02-27T05:06:14.488Z,1019.88
2019-02-27T05:07:12.540Z,1019.89
2019-02-27T05:08:12.495Z,1019.89
2019-02-27T05:09:12.823Z,1019.86
2019-02-27T05:10:12.421Z,1019.85
2019-02-27T05:11:14.160Z,1019.85
2019-02-27T05:12:12.356Z,1019.86
2019-02-27T05:13:12.320Z,1019.86
2019-02-27T05:14:12.284Z,1019.85
2019-02-27T05:15:12.250Z,1019.81
2019-02-27T05:16:14.122Z,1019.82
2019-02-27T05:17:12.171Z,1019.81
2019-02-27T05:18:12.120Z,1019.81
2019-02-27T05:19:12.091Z,1019.79
2019-02-27T05:20:12.692Z,1019.80
2019-02-27T05:21:12.020Z,1019.84
2019-02-27T05:22:11.978Z,1019.80
2019-02-27T05:23:11.941Z,1019.83
2019-02-27T05:24:11.904Z,1019.86
2019-02-27T05:25:12.194Z,1019.86
2019-02-27T05:26:11.838Z,1019.82
2019-02-27T05:27:11.795Z,1019.78
2019-02-27T05:28:11.764Z,1019.83
2019-02-27T05:29:11.717Z,1019.85
2019-02-27T05:30:12.314Z,1019.78
2019-02-27T05:31:11.640Z,1019.80
2019-02-27T05:32:11.621Z,1019.86
2019-02-27T05:33:11.571Z,1019.84
2019-02-27T05:34:13.542Z,1019.79
2019-02-27T05:35:11.507Z,1019.84
2019-02-27T05:36:11.457Z,1019.84
2019-02-27T05:37:11.429Z,1019.84
2019-02-27T05:38:11.392Z,1019.86
2019-02-27T05:39:11.351Z,1019.84
2019-02-27T05:40:11.314Z,1019.86
2019-02-27T05:41:11.281Z,1019.80
2019-02-27T05:42:13.145Z,1019.83
2019-02-27T05:43:13.859Z,1019.81
2019-02-27T05:44:11.166Z,1019.83
2019-02-27T05:45:11.116Z,1019.79
2019-02-27T05:46:11.089Z,1019.79
2019-02-27T05:47:11.846Z,1019.78
2019-02-27T05:48:11.007Z,1019.75
2019-02-27T05:49:10.978Z,1019.73
2019-02-27T05:50:10.937Z,1019.74
2019-02-27T05:51:10.904Z,1019.70
2019-02-27T05:52:11.902Z,1019.70
2019-02-27T05:53:10.827Z,1019.72
2019-02-27T05:54:10.784Z,1019.70
2019-02-27T05:55:10.748Z,1019.71
2019-02-27T05:56:15.357Z,1019.73
2019-02-27T05:57:10.692Z,1019.75
2019-02-27T05:58:10.650Z,1019.72
2019-02-27T05:59:10.598Z,1019.71
2019-02-27T06:00:10.573Z,1019.72
2019-02-27T06:01:10.525Z,1019.68
2019-02-27T06:02:11.015Z,1019.69
2019-02-27T06:03:10.449Z,1019.69
2019-02-27T06:04:10.418Z,1019.70
2019-02-27T06:05:10.369Z,1019.70
2019-02-27T06:06:11.790Z,1019.70
2019-02-27T06:07:10.299Z,1019.67
2019-02-27T06:08:10.267Z,1019.70
2019-02-27T06:09:10.932Z,1019.68
2019-02-27T06:10:10.297Z,1019.69
2019-02-27T06:11:10.147Z,1019.69
2019-02-27T06:12:10.113Z,1019.69
2019-02-27T06:13:14.015Z,1019.69
2019-02-27T06:14:10.046Z,1019.66
2019-02-27T06:15:09.998Z,1019.69
2019-02-27T06:16:09.960Z,1019.65
2019-02-27T06:17:10.138Z,1019.64
2019-02-27T06:18:09.885Z,1019.64
2019-02-27T06:19:09.851Z,1019.66
2019-02-27T06:20:09.810Z,1019.59
2019-02-27T06:21:09.770Z,1019.58
2019-02-27T06:22:09.740Z,1019.56
2019-02-27T06:23:09.705Z,1019.57
2019-02-27T06:24:12.438Z,1019.57
2019-02-27T06:25:09.634Z,1019.64
2019-02-27T06:26:09.583Z,1019.63
2019-02-27T06:27:09.555Z,1019.61
2019-02-27T06:28:09.508Z,1019.64
2019-02-27T06:29:09.479Z,1019.64
2019-02-27T06:30:09.435Z,1019.64
2019-02-27T06:31:09.400Z,1019.62
2019-02-27T06:32:12.144Z,1019.61
2019-02-27T06:33:11.596Z,1019.64
2019-02-27T06:34:09.298Z,1019.65
2019-02-27T06:35:09.246Z,1019.63
2019-02-27T06:36:09.210Z,1019.62
2019-02-27T06:37:09.171Z,1019.63
2019-02-27T06:38:09.140Z,1019.60
2019-02-27T06:39:09.109Z,1019.59
2019-02-27T06:40:09.062Z,1019.62
2019-02-27T06:41:09.026Z,1019.62
2019-02-27T06:42:09.002Z,1019.65
2019-02-27T06:43:08.943Z,1019.67
2019-02-27T06:44:08.939Z,1019.66
2019-02-27T06:45:10.214Z,1019.65
2019-02-27T06:46:08.843Z,1019.63
2019-02-27T06:47:08.791Z,1019.62
2019-02-27T06:48:10.265Z,1019.60
2019-02-27T06:49:08.715Z,1019.58
2019-02-27T06:50:08.686Z,1019.58
2019-02-27T06:51:08.651Z,1019.61
2019-02-27T06:52:09.355Z,1019.58
2019-02-27T06:53:08.573Z,1019.63
2019-02-27T06:54:08.528Z,1019.61
2019-02-27T06:55:08.490Z,1019.63
2019-02-27T06:56:08.466Z,1019.63
2019-02-27T06:57:08.477Z,1019.59
2019-02-27T06:58:08.387Z,1019.56
2019-02-27T06:59:08.342Z,1019.58
2019-02-27T07:00:08.307Z,1019.57
2019-02-27T07:01:09.689Z,1019.58
2019-02-27T07:02:08.225Z,1019.58
2019-02-27T07:03:08.195Z,1019.54
2019-02-27T07:04:08.317Z,1019.53
2019-02-27T07:05:08.118Z,1019.52
2019-02-27T07:06:08.084Z,1019.53
2019-02-27T07:07:08.041Z,1019.54
2019-02-27T07:08:08.001Z,1019.48
2019-02-27T07:09:11.403Z,1019.51
2019-02-27T07:10:07.936Z,1019.48
2019-02-27T07:11:10.889Z,1019.47
2019-02-27T07:12:07.854Z,1019.46
2019-02-27T07:13:07.823Z,1019.43
2019-02-27T07:14:07.777Z,1019.44
2019-02-27T07:15:10.312Z,1019.44
2019-02-27T07:16:07.709Z,1019.40
2019-02-27T07:17:07.659Z,1019.43
2019-02-27T07:18:07.628Z,1019.41
2019-02-27T07:19:07.592Z,1019.38
2019-02-27T07:20:08.839Z,1019.39
2019-02-27T07:21:07.518Z,1019.36
2019-02-27T07:22:09.321Z,1019.38
2019-02-27T07:23:07.444Z,1019.36
2019-02-27T07:24:07.404Z,1019.39
2019-02-27T07:25:07.360Z,1019.37
2019-02-27T07:26:07.327Z,1019.35
2019-02-27T07:27:07.292Z,1019.35
2019-02-27T07:28:09.127Z,1019.34
2019-02-27T07:29:07.216Z,1019.33
2019-02-27T07:30:08.041Z,1019.33
2019-02-27T07:31:07.143Z,1019.32
2019-02-27T07:32:07.114Z,1019.37
2019-02-27T07:33:07.405Z,1019.36
2019-02-27T07:34:07.030Z,1019.36
2019-02-27T07:35:06.993Z,1019.36
2019-02-27T07:36:06.952Z,1019.38
2019-02-27T07:37:06.919Z,1019.36
2019-02-27T07:38:06.879Z,1019.35
2019-02-27T07:39:06.838Z,1019.32
2019-02-27T07:40:08.602Z,1019.39
2019-02-27T07:41:06.774Z,1019.35
2019-02-27T07:42:06.729Z,1019.38
2019-02-27T07:43:06.695Z,1019.36
2019-02-27T07:44:06.649Z,1019.37
2019-02-27T07:45:08.089Z,1019.37
2019-02-27T07:46:06.580Z,1019.35
2019-02-27T07:47:06.540Z,1019.40
2019-02-27T07:48:06.505Z,1019.40
2019-02-27T07:49:06.478Z,1019.41
2019-02-27T07:50:08.736Z,1019.43
2019-02-27T07:51:06.388Z,1019.46
2019-02-27T07:52:06.360Z,1019.48
2019-02-27T07:53:06.323Z,1019.48
2019-02-27T07:54:06.280Z,1019.50
2019-02-27T07:55:18.644Z,1019.48
2019-02-27T07:56:06.209Z,1019.47
2019-02-27T07:57:06.171Z,1019.51
2019-02-27T07:58:06.153Z,1019.51
2019-02-27T07:59:06.101Z,1019.48
2019-02-27T08:00:06.060Z,1019.47
2019-02-27T08:01:06.030Z,1019.45
2019-02-27T08:02:05.992Z,1019.47
2019-02-27T08:03:09.064Z,1019.48
2019-02-27T08:04:05.921Z,1019.45
2019-02-27T08:05:05.885Z,1019.44
2019-02-27T08:06:05.837Z,1019.46
2019-02-27T08:07:05.804Z,1019.41
2019-02-27T08:08:05.768Z,1019.41
2019-02-27T08:09:05.726Z,1019.41
2019-02-27T08:10:05.691Z,1019.40
2019-02-27T08:11:05.672Z,1019.39
2019-02-27T08:12:05.625Z,1019.40
2019-02-27T08:13:05.582Z,1019.38
2019-02-27T08:14:05.550Z,1019.35
2019-02-27T08:15:05.517Z,1019.38
2019-02-27T08:16:05.479Z,1019.35
2019-02-27T08:17:17.023Z,1019.37
2019-02-27T08:18:05.484Z,1019.35
2019-02-27T08:19:05.372Z,1019.39
2019-02-27T08:20:05.335Z,1019.33
2019-02-27T08:21:05.296Z,1019.37
2019-02-27T08:22:05.256Z,1019.36
2019-02-27T08:23:06.832Z,1019.39
2019-02-27T08:24:07.399Z,1019.39
2019-02-27T08:25:05.153Z,1019.41
2019-02-27T08:26:05.712Z,1019.41
2019-02-27T08:27:07.152Z,1019.45
2019-02-27T08:28:05.043Z,1019.44
2019-02-27T08:29:05.005Z,1019.47
2019-02-27T08:30:04.971Z,1019.51
2019-02-27T08:31:04.938Z,1019.53
2019-02-27T08:32:05.586Z,1019.56
2019-02-27T08:33:08.215Z,1019.57
2019-02-27T08:34:04.831Z,1019.56
2019-02-27T08:35:04.788Z,1019.59
2019-02-27T08:36:04.753Z,1019.57
2019-02-27T08:37:04.708Z,1019.59
2019-02-27T08:38:04.686Z,1019.54
2019-02-27T08:39:04.658Z,1019.55
2019-02-27T08:40:04.613Z,1019.52
2019-02-27T08:41:04.568Z,1019.49
2019-02-27T08:42:04.557Z,1019.49
2019-02-27T08:43:04.502Z,1019.45
2019-02-27T08:44:04.468Z,1019.45
2019-02-27T08:45:04.427Z,1019.40
2019-02-27T08:46:04.402Z,1019.38
2019-02-27T08:47:04.450Z,1019.41
2019-02-27T08:48:04.340Z,1019.39
2019-02-27T08:49:04.293Z,1019.37
2019-02-27T08:50:04.262Z,1019.37
2019-02-27T08:51:08.389Z,1019.37
2019-02-27T08:52:04.183Z,1019.40
2019-02-27T08:53:04.149Z,1019.33
2019-02-27T08:54:04.119Z,1019.37
2019-02-27T08:55:05.716Z,1019.35
2019-02-27T08:56:04.053Z,1019.35
2019-02-27T08:57:04.013Z,1019.35
2019-02-27T08:58:03.973Z,1019.31
2019-02-27T08:59:05.874Z,1019.30
2019-02-27T09:00:03.901Z,1019.23
2019-02-27T09:01:03.863Z,1019.25
2019-02-27T09:02:03.830Z,1019.27
2019-02-27T09:03:03.859Z,1019.28
2019-02-27T09:04:03.752Z,1019.25
2019-02-27T09:05:03.730Z,1019.22
2019-02-27T09:06:03.694Z,1019.22
2019-02-27T09:07:03.655Z,1019.21
2019-02-27T09:08:03.619Z,1019.22
2019-02-27T09:09:03.588Z,1019.19
2019-02-27T09:10:03.545Z,1019.18
2019-02-27T09:11:06.545Z,1019.21
2019-02-27T09:12:03.484Z,1019.19
2019-02-27T09:13:05.751Z,1019.17
2019-02-27T09:14:03.409Z,1019.18
2019-02-27T09:15:03.385Z,1019.16
2019-02-27T09:16:03.343Z,1019.17
2019-02-27T09:17:03.306Z,1019.15
2019-02-27T09:18:03.275Z,1019.17
2019-02-27T09:19:03.245Z,1019.18
2019-02-27T09:20:03.211Z,1019.13
2019-02-27T09:21:03.172Z,1019.14
2019-02-27T09:22:03.163Z,1019.14
2019-02-27T09:23:03.109Z,1019.18
2019-02-27T09:24:03.070Z,1019.15
2019-02-27T09:25:03.036Z,1019.19
2019-02-27T09:26:03.543Z,1019.18
2019-02-27T09:27:02.970Z,1019.15
2019-02-27T09:28:03.543Z,1019.14
2019-02-27T09:29:02.901Z,1019.19
2019-02-27T09:30:02.911Z,1019.17
2019-02-27T09:31:04.290Z,1019.16
2019-02-27T09:32:02.804Z,1019.16
2019-02-27T09:33:02.765Z,1019.14
2019-02-27T09:34:02.725Z,1019.12
2019-02-27T09:35:02.702Z,1019.12
2019-02-27T09:36:02.657Z,1019.07
2019-02-27T09:37:02.629Z,1019.04
2019-02-27T09:38:02.590Z,1019.08
2019-02-27T09:39:02.565Z,1019.09
2019-02-27T09:40:05.695Z,1019.03
2019-02-27T09:41:02.497Z,1019.05
2019-02-27T09:42:02.460Z,1019.07
2019-02-27T09:43:02.418Z,1019.02
2019-02-27T09:44:02.390Z,1019.03
2019-02-27T09:45:02.350Z,1019.01
2019-02-27T09:46:02.354Z,1019.02
2019-02-27T09:47:02.290Z,1019.04
2019-02-27T09:48:02.257Z,1019.00
2019-02-27T09:49:06.807Z,1018.97
2019-02-27T09:50:02.190Z,1019.00
2019-02-27T09:51:02.157Z,1019.00
2019-02-27T09:52:02.122Z,1018.97
2019-02-27T09:53:03.694Z,1018.96
2019-02-27T09:54:02.067Z,1018.97
2019-02-27T09:55:02.024Z,1019.00
2019-02-27T09:56:01.990Z,1018.99
2019-02-27T09:57:02.847Z,1019.00
2019-02-27T09:58:01.926Z,1019.05
2019-02-27T09:59:01.896Z,1019.28
2019-02-27T10:00:02.968Z,1019.98
2019-02-27T10:01:03.149Z,1020.47
2019-02-27T10:02:01.804Z,1020.57
2019-02-27T10:03:01.769Z,1020.54
2019-02-27T10:04:01.741Z,1020.52
2019-02-27T10:05:03.377Z,1020.54
2019-02-27T10:06:01.676Z,1020.51
2019-02-27T10:07:01.642Z,1020.51
2019-02-27T10:08:01.628Z,1020.57
2019-02-27T10:09:01.584Z,1020.55
2019-02-27T10:10:01.562Z,1020.55
2019-02-27T10:11:01.530Z,1020.61
2019-02-27T10:12:01.499Z,1020.56
2019-02-27T10:13:03.239Z,1020.57
2019-02-27T10:14:01.453Z,1020.55
2019-02-27T10:15:01.426Z,1020.59
2019-02-27T10:16:01.733Z,1020.58
2019-02-27T10:17:01.391Z,1020.53
2019-02-27T10:18:01.355Z,1020.57
2019-02-27T10:19:01.327Z,1020.54
2019-02-27T10:20:02.712Z,1020.53
2019-02-27T10:21:01.300Z,1020.53
2019-02-27T10:22:01.269Z,1020.56
2019-02-27T10:23:01.249Z,1020.51
2019-02-27T10:24:04.457Z,1020.47
2019-02-27T10:25:01.198Z,1020.44
2019-02-27T10:26:01.178Z,1020.36
2019-02-27T10:27:01.154Z,1020.36
2019-02-27T10:28:04.458Z,1020.36
2019-02-27T10:29:01.118Z,1020.26
2019-02-27T10:30:01.108Z,1020.23
2019-02-27T10:31:01.075Z,1020.21
2019-02-27T10:32:01.387Z,1020.19
2019-02-27T10:33:03.166Z,1020.20
2019-02-27T10:34:01.013Z,1020.19
2019-02-27T10:35:00.992Z,1020.18
2019-02-27T10:36:03.669Z,1020.20
2019-02-27T10:37:00.993Z,1020.15
2019-02-27T10:38:00.945Z,1020.21
2019-02-27T10:39:02.061Z,1020.16
2019-02-27T10:40:00.899Z,1020.17
2019-02-27T10:41:00.884Z,1020.20
2019-02-27T10:42:00.865Z,1020.11
2019-02-27T10:43:00.844Z,1020.08
2019-02-27T10:44:00.820Z,1020.11
2019-02-27T10:45:00.811Z,1020.04
2019-02-27T10:46:00.803Z,1019.98
2019-02-27T10:47:00.859Z,1019.93
2019-02-27T10:48:00.755Z,1019.92
2019-02-27T10:49:00.754Z,1019.87
2019-02-27T10:50:02.127Z,1019.89
2019-02-27T10:51:00.714Z,1019.83
2019-02-27T10:52:00.685Z,1019.79
2019-02-27T10:53:00.675Z,1019.71
2019-02-27T10:54:04.644Z,1019.70
2019-02-27T10:55:00.641Z,1019.70
2019-02-27T10:56:00.629Z,1019.76
2019-02-27T10:57:00.602Z,1019.73
2019-02-27T10:58:00.594Z,1019.68
2019-02-27T10:59:00.573Z,1019.64
2019-02-27T11:00:00.564Z,1019.65
2019-02-27T11:01:01.207Z,1019.65
2019-02-27T11:02:00.552Z,1019.67
2019-02-27T11:03:00.510Z,1019.61
2019-02-27T11:04:03.069Z,1019.58
2019-02-27T11:05:00.498Z,1019.49
2019-02-27T11:06:00.461Z,1019.58
2019-02-27T11:07:00.447Z,1019.51
2019-02-27T11:08:00.426Z,1019.49
2019-02-27T11:09:04.481Z,1019.38
2019-02-27T11:10:00.399Z,1019.37
2019-02-27T11:11:00.395Z,1019.28
2019-02-27T11:12:00.370Z,1019.25
2019-02-27T11:13:05.728Z,1019.25
2019-02-27T11:14:00.348Z,1019.32
2019-02-27T11:15:00.331Z,1019.24
2019-02-27T11:16:00.297Z,1019.23
2019-02-27T11:17:02.564Z,1019.14
2019-02-27T11:18:04.261Z,1019.16
2019-02-27T11:19:00.256Z,1019.13
2019-02-27T11:20:00.367Z,1019.08
2019-02-27T11:21:00.227Z,1019.05
2019-02-27T11:22:00.215Z,1018.77
2019-02-27T11:23:00.195Z,1018.97
2019-02-27T11:24:00.181Z,1019.02
2019-02-27T11:25:00.316Z,1018.91
2019-02-27T11:26:00.143Z,1018.90
2019-02-27T11:27:00.135Z,1018.71
2019-02-27T11:28:00.116Z,1018.82
2019-02-27T11:29:00.108Z,1018.68
2019-02-27T11:30:02.904Z,1018.67
2019-02-27T11:31:00.087Z,1018.60
2019-02-27T11:32:00.096Z,1018.67
2019-02-27T11:33:00.046Z,1018.53
2019-02-27T11:34:01.147Z,1018.49
2019-02-27T11:35:00.014Z,1018.61
2019-02-27T11:36:00.001Z,1018.60
2019-02-27T11:36:59.982Z,1018.64
2019-02-27T11:37:59.968Z,1018.57
2019-02-27T11:38:59.968Z,1018.56
2019-02-27T11:39:59.954Z,1018.57
2019-02-27T11:40:59.931Z,1018.53
2019-02-27T11:41:59.908Z,1018.48
2019-02-27T11:43:01.085Z,1018.43
2019-02-27T11:43:59.885Z,1018.37
2019-02-27T11:44:59.862Z,1018.38
2019-02-27T11:45:59.846Z,1018.36
2019-02-27T11:46:59.832Z,1018.32
2019-02-27T11:47:59.815Z,1018.30
2019-02-27T11:49:03.051Z,1018.26
2019-02-27T11:49:59.779Z,1018.31
2019-02-27T11:50:59.777Z,1018.25
2019-02-27T11:51:59.749Z,1018.16
2019-02-27T11:53:02.829Z,1018.09
2019-02-27T11:53:59.724Z,1018.11
2019-02-27T11:54:59.708Z,1018.17
2019-02-27T11:55:59.698Z,1018.12
2019-02-27T11:56:59.683Z,1018.07
2019-02-27T11:58:04.507Z,1017.94
2019-02-27T11:58:59.637Z,1018.05
2019-02-27T11:59:59.628Z,1017.90
2019-02-27T12:00:59.609Z,1017.94
2019-02-27T12:01:59.618Z,1017.92
2019-02-27T12:02:59.590Z,1017.84
2019-02-27T12:03:59.568Z,1017.73
2019-02-27T12:04:59.553Z,1017.69